Terminal Aerodrome Forecast
Issued by NWS

Home | Current Version | Previous Version | Text Only | Print | Product List | Glossary On
Versions: 1 2 3 4 5 6 7 8 9 10 11 12 13 14 15 16 17 18 19 20 21 22 23 24
000
FTUS44 KHGX 191125
TAFCXO
TAF
KCXO 191125Z 1912/2012 00000KT 2SM BR BKN005 BKN010
      TEMPO 1912/1914 1/2SM FG BKN003
     FM191500 17007KT P6SM SCT015 BKN025
     FM191800 17008KT P6SM VCSH BKN040 BKN250
     FM200000 15006KT P6SM BKN250
     FM200800 VRB03KT 4SM BR OVC007=

USA.gov is the U.S. government's official web portal to all federal, state and local government web resources and services.